Main page
METAR-TAF:

METAR-TAF

Airports :

Kuwait International Airport

Kuwait City, Kuwait

latitude: 29-13N, longitude: 047-59E, elevation: 55 m

Current weather observation

The report was made 19 minutes ago, at 19:00 UTC
Wind 13 kt from the North
Temperature 40°C
Humidity 16%
Pressure 1001 hPa
Visibility 10 km or more
no clouds below 1500 m and no cumulonimbus

METAR: OKBK 181900Z 36013KT CAVOK 40/09 Q1001 NOSIG

Time: 22:19 (19:19 UTC)

Forecast

The report was made 2 hours and 34 minutes ago, at 16:45 UTC
Forecast valid from 18 at 18 UTC to 19 at 24 UTC
Wind 15 kt from the North with gusts up to 25 kt
Visibility: 7000 m
Clear sky
Temporary
from 18 at 18 UTC to 19 at 02 UTC
Visibility: 4000 m
(light) , widespread dust

TAF: OKBK 181645Z 1818/1924 35015G25KT 7000 SKC TEMPO 1818/1902 4000 -BLDU

Weather observations and forecasts of more than 4000 airports (METAR and TAF reports).

The available stations are represented by yellow and red dots on the map.

Hover mouse over dot to see the name of the station.

Then click to see weather observations and forecasts.

To change the map : click on the green buttons with a black cross to zoom in, on the green button with a dash to zoom out, or on the green arrows for adjacent maps.


METAR-TAF: